createdAt,value
2024-02-19T00:02:01.249Z,-3.98
2024-02-19T00:05:07.498Z,-4.08
2024-02-19T00:08:11.497Z,-4.15
2024-02-19T00:11:16.066Z,-4.52
2024-02-19T00:14:19.886Z,-4.04
2024-02-19T00:17:23.566Z,-3.88
2024-02-19T00:20:29.662Z,-3.96
2024-02-19T00:23:37.040Z,-3.97
2024-02-19T00:26:40.813Z,-4.00
2024-02-19T00:29:46.101Z,-3.86
2024-02-19T00:32:50.039Z,-3.96
2024-02-19T00:35:55.532Z,-3.93
2024-02-19T00:38:59.076Z,-3.81
2024-02-19T00:42:03.241Z,-3.94
2024-02-19T00:45:08.773Z,-4.00
2024-02-19T00:48:13.089Z,-4.12
2024-02-19T00:51:18.194Z,-4.05
2024-02-19T00:54:21.841Z,-4.41
2024-02-19T00:57:25.495Z,-4.07
2024-02-19T01:00:29.148Z,-4.18
2024-02-19T01:03:32.839Z,-4.07
2024-02-19T01:06:37.928Z,-4.03
2024-02-19T01:09:41.625Z,-3.73
2024-02-19T01:12:45.228Z,-3.61
2024-02-19T01:15:48.962Z,-3.62
2024-02-19T01:18:53.228Z,-3.61
2024-02-19T01:21:58.605Z,-3.54
2024-02-19T01:25:02.479Z,-3.57
2024-02-19T01:28:08.657Z,-3.65
2024-02-19T01:31:12.393Z,-3.56
2024-02-19T01:34:17.481Z,-3.62
2024-02-19T01:37:22.984Z,-3.64
2024-02-19T01:40:26.673Z,-3.56
2024-02-19T01:43:30.310Z,-3.65
2024-02-19T01:46:35.168Z,-3.77
2024-02-19T01:49:39.716Z,-3.86
2024-02-19T01:52:46.012Z,-3.91
2024-02-19T01:55:50.749Z,-3.73
2024-02-19T01:58:55.315Z,-4.00
2024-02-19T02:01:59.036Z,-4.13
2024-02-19T02:05:03.499Z,-3.99
2024-02-19T02:08:09.233Z,-4.21
2024-02-19T02:11:13.363Z,-4.03
2024-02-19T02:14:20.938Z,-4.19
2024-02-19T02:17:25.040Z,-4.26
2024-02-19T02:20:28.784Z,-4.09
2024-02-19T02:23:35.480Z,-4.15
2024-02-19T02:26:42.393Z,-4.38
2024-02-19T02:29:46.427Z,-4.20
2024-02-19T02:32:54.594Z,-4.10
2024-02-19T02:35:58.400Z,-4.02
2024-02-19T02:39:02.646Z,-4.20
2024-02-19T02:42:08.583Z,-3.96
2024-02-19T02:45:12.962Z,-3.61
2024-02-19T02:48:16.918Z,-3.94
2024-02-19T02:51:22.005Z,-3.74
2024-02-19T02:54:25.629Z,-4.04
2024-02-19T02:57:30.759Z,-4.06
2024-02-19T03:00:44.427Z,-4.08
2024-02-19T03:03:49.138Z,-3.91
2024-02-19T03:06:53.209Z,-4.25
2024-02-19T03:10:00.606Z,-4.28
2024-02-19T03:13:06.533Z,-4.26
2024-02-19T03:16:10.560Z,-4.25
2024-02-19T03:20:10.928Z,-4.24
2024-02-19T03:27:31.811Z,-4.29
2024-02-19T03:30:35.564Z,-4.13
2024-02-19T03:33:40.051Z,-4.26
2024-02-19T03:36:47.544Z,-4.08
2024-02-19T03:39:51.288Z,-4.37
2024-02-19T03:42:56.818Z,-4.36
2024-02-19T03:46:02.210Z,-4.44
2024-02-19T03:49:06.211Z,-4.15
2024-02-19T03:52:10.030Z,-4.16
2024-02-19T03:55:13.851Z,-4.51
2024-02-19T03:58:19.154Z,-4.38
2024-02-19T04:01:22.913Z,-4.63
2024-02-19T04:04:26.617Z,-4.39
2024-02-19T04:07:30.259Z,-4.58
2024-02-19T04:10:33.937Z,-4.50
2024-02-19T04:13:39.046Z,-4.53
2024-02-19T04:16:44.348Z,-4.49
2024-02-19T04:19:48.950Z,-4.56
2024-02-19T04:22:55.662Z,-4.81
2024-02-19T04:25:59.800Z,-4.60
2024-02-19T04:29:05.084Z,-4.79
2024-02-19T04:32:08.703Z,-4.57
2024-02-19T04:35:12.810Z,-4.65
2024-02-19T04:38:16.737Z,-4.82
2024-02-19T04:41:20.464Z,-4.98
2024-02-19T04:44:25.568Z,-4.99
2024-02-19T04:47:29.232Z,-4.75
2024-02-19T04:50:32.875Z,-4.77
2024-02-19T04:53:36.480Z,-4.71
2024-02-19T04:56:40.080Z,-5.01
2024-02-19T04:59:45.277Z,-4.69
2024-02-19T05:02:49.444Z,-4.66
2024-02-19T05:05:53.146Z,-4.84
2024-02-19T05:08:56.949Z,-4.71
2024-02-19T05:12:00.807Z,-4.90
2024-02-19T05:15:06.963Z,-4.78
2024-02-19T05:18:10.746Z,-4.86
2024-02-19T05:21:15.313Z,-4.59
2024-02-19T05:24:19.414Z,-5.19
2024-02-19T05:27:25.316Z,-4.94
2024-02-19T05:30:31.425Z,-4.96
2024-02-19T05:33:35.243Z,-5.33
2024-02-19T05:36:39.495Z,-5.13
2024-02-19T05:39:43.539Z,-4.94
2024-02-19T05:42:47.638Z,-4.96
2024-02-19T05:45:54.332Z,-5.05
2024-02-19T05:48:58.118Z,-5.53
2024-02-19T05:52:01.878Z,-5.17
2024-02-19T05:55:06.268Z,-5.29
2024-02-19T05:58:10.014Z,-5.31
2024-02-19T06:01:15.247Z,-5.26
2024-02-19T06:04:19.086Z,-5.14
2024-02-19T06:07:22.744Z,-5.49
2024-02-19T06:10:27.626Z,-5.40
2024-02-19T06:13:31.507Z,-5.15
2024-02-19T06:16:36.613Z,-5.24
2024-02-19T06:19:42.442Z,-5.29
2024-02-19T06:22:46.464Z,-5.37
2024-02-19T06:25:50.092Z,-5.33
2024-02-19T06:28:53.745Z,-5.08
2024-02-19T06:31:58.831Z,-5.63
2024-02-19T06:35:02.682Z,-5.04
2024-02-19T06:38:07.271Z,-5.16
2024-02-19T06:41:10.861Z,-5.18
2024-02-19T06:44:14.704Z,-5.07
2024-02-19T06:47:19.901Z,-4.92
2024-02-19T06:50:23.684Z,-4.86
2024-02-19T06:53:33.151Z,-4.95
2024-02-19T06:56:37.090Z,-5.02
2024-02-19T06:59:40.710Z,-4.94
2024-02-19T07:02:45.776Z,-4.87
2024-02-19T07:05:49.421Z,-5.22
2024-02-19T07:08:53.140Z,-4.82
2024-02-19T07:11:56.862Z,-4.57
2024-02-19T07:15:00.866Z,-4.83
2024-02-19T07:18:07.408Z,-4.59
2024-02-19T07:21:11.630Z,-4.73
2024-02-19T07:24:15.484Z,-4.73
2024-02-19T07:27:19.301Z,-4.60
2024-02-19T07:30:22.972Z,-4.39
2024-02-19T07:33:29.983Z,-4.54
2024-02-19T07:36:33.830Z,-4.64
2024-02-19T07:39:40.614Z,-4.75
2024-02-19T07:42:44.423Z,-4.68
2024-02-19T07:45:48.284Z,-4.59
2024-02-19T07:48:53.458Z,-4.16
2024-02-19T07:51:57.301Z,-3.68
2024-02-19T07:55:01.059Z,-3.88
2024-02-19T07:58:04.910Z,-3.85
2024-02-19T08:01:09.055Z,-4.22
2024-02-19T08:04:14.246Z,-4.18
2024-02-19T08:07:18.049Z,-4.15
2024-02-19T08:10:21.841Z,-3.95
2024-02-19T08:13:26.035Z,-4.75
2024-02-19T08:16:30.037Z,-4.39
2024-02-19T08:19:35.929Z,-4.17
2024-02-19T08:22:40.117Z,-4.18
2024-02-19T08:25:44.858Z,-4.03
2024-02-19T08:28:51.801Z,-3.99
2024-02-19T08:31:55.556Z,-3.50
2024-02-19T08:35:00.688Z,-3.71
2024-02-19T08:38:05.698Z,-3.83
2024-02-19T08:41:09.337Z,-4.16
2024-02-19T08:44:13.028Z,-4.08
2024-02-19T08:47:16.791Z,-4.34
2024-02-19T08:50:21.936Z,-3.80
2024-02-19T08:53:25.660Z,-3.83
2024-02-19T08:56:29.395Z,-3.87
2024-02-19T08:59:33.031Z,-3.67
2024-02-19T09:02:37.451Z,-4.17
2024-02-19T09:05:42.495Z,-4.16
2024-02-19T09:08:47.622Z,-3.97
2024-02-19T09:11:51.743Z,-3.90
2024-02-19T09:14:56.527Z,-4.17
2024-02-19T09:18:00.400Z,-3.82
2024-02-19T09:21:06.952Z,-4.27
2024-02-19T09:24:10.703Z,-3.52
2024-02-19T09:27:15.441Z,-3.61
2024-02-19T09:30:19.648Z,-3.35
2024-02-19T09:33:23.379Z,-3.16
2024-02-19T09:36:28.617Z,-3.98
2024-02-19T09:39:32.777Z,-3.80
2024-02-19T09:42:37.607Z,-3.54
2024-02-19T09:45:44.494Z,-3.79
2024-02-19T09:48:52.654Z,-3.45
2024-02-19T09:52:04.100Z,-3.11
2024-02-19T09:55:10.679Z,-3.52
2024-02-19T09:58:14.317Z,-3.63
2024-02-19T10:01:18.523Z,-3.38
2024-02-19T10:04:22.712Z,-2.97
2024-02-19T10:07:28.043Z,-3.11
2024-02-19T10:10:39.353Z,-2.69
2024-02-19T10:13:52.649Z,-2.59
2024-02-19T10:17:23.545Z,-2.83
2024-02-19T10:20:30.421Z,-3.05
2024-02-19T10:23:35.527Z,-3.21
2024-02-19T10:26:39.206Z,-1.86
2024-02-19T10:29:42.919Z,-2.40
2024-02-19T10:32:47.767Z,-3.41
2024-02-19T10:35:51.767Z,-2.63
2024-02-19T10:38:56.911Z,-3.47
2024-02-19T10:42:00.724Z,-3.25
2024-02-19T10:45:04.733Z,-2.31
2024-02-19T10:48:10.127Z,-2.73
2024-02-19T10:51:18.985Z,-3.47
2024-02-19T10:54:24.085Z,-2.72
2024-02-19T10:57:31.603Z,-1.84
2024-02-19T11:00:35.606Z,-2.55
2024-02-19T11:03:46.850Z,-2.47
2024-02-19T11:06:52.392Z,-2.41
2024-02-19T11:09:59.666Z,-2.09
2024-02-19T11:13:07.963Z,-2.58
2024-02-19T11:16:18.844Z,-1.99
2024-02-19T11:19:24.314Z,-2.75
2024-02-19T11:22:32.060Z,-2.55
2024-02-19T11:25:37.547Z,-2.74
2024-02-19T11:28:41.318Z,-2.20
2024-02-19T11:31:45.439Z,-2.61
2024-02-19T11:34:49.151Z,-3.11
2024-02-19T11:37:52.866Z,-2.77
2024-02-19T11:40:59.070Z,-2.84
2024-02-19T11:44:02.903Z,-2.68
2024-02-19T11:47:07.160Z,-2.58
2024-02-19T11:50:16.513Z,-3.28
2024-02-19T11:53:20.357Z,-2.59
2024-02-19T11:56:25.479Z,-1.97
2024-02-19T11:59:29.288Z,-3.22
2024-02-19T12:02:32.922Z,-2.01
2024-02-19T12:05:36.652Z,-2.07
2024-02-19T12:08:40.737Z,-2.13
2024-02-19T12:11:48.534Z,-2.53
2024-02-19T12:14:53.053Z,-2.33
2024-02-19T12:17:58.665Z,-2.20
2024-02-19T12:21:09.640Z,-2.81
2024-02-19T12:24:14.120Z,-2.48
2024-02-19T12:27:19.529Z,-2.34
2024-02-19T12:30:23.992Z,-2.43
2024-02-19T12:33:28.347Z,-2.91
2024-02-19T12:36:32.147Z,-2.88
2024-02-19T12:39:35.908Z,-3.11
2024-02-19T12:42:41.118Z,-3.32
2024-02-19T12:45:45.027Z,-3.62
2024-02-19T12:48:50.442Z,-3.62
2024-02-19T12:51:55.077Z,-3.61
2024-02-19T12:55:22.969Z,-3.50
2024-02-19T12:58:31.092Z,-3.44
2024-02-19T13:01:43.219Z,-3.30
2024-02-19T13:04:48.887Z,-3.43
2024-02-19T13:07:52.822Z,-3.26
2024-02-19T13:10:56.849Z,-2.95
2024-02-19T13:14:04.170Z,-2.84
2024-02-19T13:17:15.265Z,-2.99
2024-02-19T13:20:20.917Z,-3.04
2024-02-19T13:23:24.780Z,-2.95
2024-02-19T13:26:28.532Z,-3.29
2024-02-19T13:29:33.732Z,-4.05
2024-02-19T13:32:40.146Z,-3.77
2024-02-19T13:35:48.649Z,-4.17
2024-02-19T13:38:56.098Z,-5.00
2024-02-19T13:42:00.318Z,-4.87
2024-02-19T13:45:10.219Z,-4.29
2024-02-19T13:48:14.500Z,-4.50
2024-02-19T13:51:18.320Z,-4.69
2024-02-19T13:54:22.336Z,-4.51
2024-02-19T13:58:28.556Z,-4.41
2024-02-19T14:02:09.730Z,-4.53
2024-02-19T14:05:14.587Z,-4.54
2024-02-19T14:08:20.079Z,-4.61
2024-02-19T14:11:28.529Z,-4.47
2024-02-19T14:14:45.455Z,-4.70
2024-02-19T14:17:50.668Z,-4.39
2024-02-19T14:20:54.452Z,-4.26
2024-02-19T14:23:58.289Z,-4.19
2024-02-19T14:27:04.201Z,-4.22
2024-02-19T14:30:12.816Z,-4.19
2024-02-19T14:33:18.284Z,-4.19
2024-02-19T14:36:22.325Z,-4.29
2024-02-19T14:39:28.271Z,-4.14
2024-02-19T14:42:31.974Z,-3.86
2024-02-19T14:45:35.644Z,-4.02
2024-02-19T14:48:41.872Z,-4.14
2024-02-19T14:51:48.815Z,-4.17
2024-02-19T14:54:55.478Z,-4.35
2024-02-19T14:57:59.343Z,-4.39
2024-02-19T15:01:03.297Z,-4.32
2024-02-19T15:04:12.178Z,-4.46
2024-02-19T15:07:16.255Z,-4.47
2024-02-19T15:10:25.501Z,-4.68
2024-02-19T15:13:29.313Z,-4.67
2024-02-19T15:16:33.293Z,-4.67
2024-02-19T15:19:38.595Z,-4.79
2024-02-19T15:22:42.302Z,-4.76
2024-02-19T15:25:46.110Z,-5.01
2024-02-19T15:28:49.936Z,-4.71
2024-02-19T15:31:53.610Z,-4.57
2024-02-19T15:34:58.804Z,-4.52
2024-02-19T15:38:04.173Z,-4.67
2024-02-19T15:41:12.432Z,-4.82
2024-02-19T15:44:16.262Z,-4.97
2024-02-19T15:47:21.016Z,-5.10
2024-02-19T15:50:28.943Z,-5.02
2024-02-19T15:53:32.705Z,-5.08
2024-02-19T15:56:37.103Z,-5.17
2024-02-19T15:59:40.825Z,-5.31
2024-02-19T16:02:44.582Z,-5.00
2024-02-19T16:06:53.757Z,-5.16
2024-02-19T16:10:30.984Z,-5.18
2024-02-19T16:13:40.090Z,-5.07
2024-02-19T16:16:44.328Z,-5.06
2024-02-19T16:19:48.838Z,-5.25
2024-02-19T16:22:57.139Z,-5.25
2024-02-19T16:26:02.806Z,-4.95
2024-02-19T16:29:06.817Z,-4.94
2024-02-19T16:32:12.137Z,-4.85
2024-02-19T16:35:16.305Z,-4.79
2024-02-19T16:38:24.599Z,-5.06
2024-02-19T16:41:28.392Z,-5.20
2024-02-19T16:44:32.076Z,-5.00
2024-02-19T16:47:36.849Z,-4.79
2024-02-19T16:50:40.830Z,-4.79
2024-02-19T16:53:55.212Z,-4.86
2024-02-19T16:57:01.324Z,-4.80
2024-02-19T17:00:06.948Z,-4.82
2024-02-19T17:03:11.027Z,-4.80
2024-02-19T17:06:15.743Z,-4.75
2024-02-19T17:09:27.411Z,-4.67
2024-02-19T17:12:31.486Z,-4.47
2024-02-19T17:15:38.263Z,-4.45
2024-02-19T17:18:42.302Z,-4.52
2024-02-19T17:21:55.770Z,-4.67
2024-02-19T17:25:01.925Z,-4.75
2024-02-19T17:28:14.121Z,-4.98
2024-02-19T17:31:23.461Z,-5.46
2024-02-19T17:34:33.090Z,-5.24
2024-02-19T17:37:39.753Z,-5.37
2024-02-19T17:40:47.169Z,-5.20
2024-02-19T17:43:54.882Z,-5.25
2024-02-19T17:47:00.063Z,-5.60
2024-02-19T17:50:04.557Z,-5.24
2024-02-19T17:53:08.718Z,-5.15
2024-02-19T17:56:14.982Z,-5.11
2024-02-19T17:59:19.986Z,-5.34
2024-02-19T18:02:27.015Z,-5.52
2024-02-19T18:05:39.174Z,-5.83
2024-02-19T18:08:43.493Z,-5.65
2024-02-19T18:11:49.015Z,-5.60
2024-02-19T18:14:53.847Z,-5.73
2024-02-19T18:17:59.070Z,-5.81
2024-02-19T18:21:03.315Z,-5.87
2024-02-19T18:24:09.609Z,-5.98
2024-02-19T18:27:16.830Z,-5.89
2024-02-19T18:30:21.559Z,-5.86
2024-02-19T18:33:27.063Z,-5.88
2024-02-19T18:36:35.970Z,-5.75
2024-02-19T18:39:45.744Z,-5.66
2024-02-19T18:47:01.316Z,-5.59
2024-02-19T18:50:50.263Z,-5.60
2024-02-19T18:55:01.902Z,-5.63
2024-02-19T18:58:51.275Z,-5.71
2024-02-19T19:01:59.330Z,-5.86
2024-02-19T19:05:06.290Z,-6.20
2024-02-19T19:08:12.495Z,-6.06
2024-02-19T19:11:16.703Z,-5.98
2024-02-19T19:14:25.454Z,-6.18
2024-02-19T19:17:29.778Z,-6.26
2024-02-19T19:20:40.095Z,-6.30
2024-02-19T19:23:46.612Z,-6.31
2024-02-19T19:26:50.771Z,-6.20
2024-02-19T19:29:56.146Z,-6.39
2024-02-19T19:33:00.487Z,-6.32
2024-02-19T19:36:04.412Z,-6.26
2024-02-19T19:39:09.711Z,-6.21
2024-02-19T19:43:16.916Z,-6.06
2024-02-19T19:47:26.307Z,-6.36
2024-02-19T19:50:35.948Z,-6.33
2024-02-19T19:53:39.594Z,-6.13
2024-02-19T19:56:45.478Z,-6.44
2024-02-19T19:59:52.235Z,-6.42
2024-02-19T20:02:58.333Z,-6.28
2024-02-19T20:06:04.219Z,-6.18
2024-02-19T20:13:35.423Z,-6.23
2024-02-19T20:16:47.194Z,-6.28
2024-02-19T20:19:52.701Z,-6.26
2024-02-19T20:28:14.598Z,-6.56
2024-02-19T20:31:18.623Z,-6.31
2024-02-19T20:34:22.429Z,-6.30
2024-02-19T20:37:30.355Z,-6.20
2024-02-19T20:40:35.085Z,-6.13
2024-02-19T20:43:40.171Z,-6.04
2024-02-19T20:46:43.871Z,-6.13
2024-02-19T20:50:30.298Z,-6.07
2024-02-19T20:54:53.325Z,-5.97
2024-02-19T21:07:56.118Z,-6.26
2024-02-19T21:11:04.886Z,-6.18
2024-02-19T21:14:09.975Z,-6.03
2024-02-19T21:17:13.859Z,-6.07
2024-02-19T21:20:21.608Z,-6.04
2024-02-19T21:23:25.880Z,-6.03
2024-02-19T21:26:32.049Z,-6.28
2024-02-19T21:29:38.455Z,-6.04
2024-02-19T21:32:42.129Z,-5.75
2024-02-19T21:35:48.920Z,-5.96
2024-02-19T21:39:41.492Z,-5.62
2024-02-19T21:42:56.698Z,-5.77
2024-02-19T21:47:00.521Z,-5.81
2024-02-19T21:50:25.206Z,-6.00
2024-02-19T21:53:30.435Z,-6.10
2024-02-19T21:56:48.777Z,-5.91
2024-02-19T22:00:52.746Z,-6.02
2024-02-19T22:04:03.596Z,-6.22
2024-02-19T22:11:51.128Z,-6.49
2024-02-19T22:14:59.260Z,-6.74
2024-02-19T22:18:04.008Z,-6.92
2024-02-19T22:21:12.620Z,-7.38
2024-02-19T22:24:17.265Z,-7.31
2024-02-19T22:27:25.738Z,-7.11
2024-02-19T22:30:29.419Z,-7.33
2024-02-19T22:33:33.349Z,-7.46
2024-02-19T22:36:44.950Z,-7.67
2024-02-19T22:40:04.302Z,-7.44
2024-02-19T22:43:33.703Z,-7.33
2024-02-19T22:46:37.423Z,-7.46
2024-02-19T22:49:44.478Z,-7.67
2024-02-19T22:52:51.085Z,-7.88
2024-02-19T22:55:55.180Z,-7.88
2024-02-19T22:59:13.991Z,-7.80
2024-02-19T23:02:22.653Z,-7.51
2024-02-19T23:05:26.749Z,-7.46
2024-02-19T23:08:30.433Z,-7.27
2024-02-19T23:11:34.137Z,-7.81
2024-02-19T23:14:43.538Z,-8.10
2024-02-19T23:17:49.301Z,-7.97
2024-02-19T23:20:53.411Z,-8.01
2024-02-19T23:23:58.140Z,-7.71
2024-02-19T23:27:04.384Z,-7.77
2024-02-19T23:30:15.218Z,-7.52
2024-02-19T23:33:21.679Z,-7.70
2024-02-19T23:36:28.687Z,-8.09
2024-02-19T23:39:32.335Z,-8.00
2024-02-19T23:42:36.172Z,-8.14
2024-02-19T23:45:41.595Z,-7.91
2024-02-19T23:48:52.766Z,-7.95
2024-02-19T23:51:56.551Z,-7.67
2024-02-19T23:55:05.493Z,-7.85
2024-02-19T23:58:12.714Z,-8.09
